sensor_id;sensor_type;location;lat;lon;timestamp;pressure;altitude;pressure_sealevel;temperature
69785;BMP280;14177;51.520;6.764;2022-10-17T00:00:56;101484.59;;;15.82
69785;BMP280;14177;51.520;6.764;2022-10-17T00:03:23;101493.50;;;15.78
69785;BMP280;14177;51.520;6.764;2022-10-17T00:05:50;101494.59;;;15.73
69785;BMP280;14177;51.520;6.764;2022-10-17T00:08:18;101485.97;;;15.71
69785;BMP280;14177;51.520;6.764;2022-10-17T00:10:58;101487.84;;;15.67
69785;BMP280;14177;51.520;6.764;2022-10-17T00:13:25;101487.00;;;15.67
69785;BMP280;14177;51.520;6.764;2022-10-17T00:15:53;101481.06;;;15.63
69785;BMP280;14177;51.520;6.764;2022-10-17T00:18:21;101488.81;;;15.65
69785;BMP280;14177;51.520;6.764;2022-10-17T00:20:48;101482.78;;;15.63
69785;BMP280;14177;51.520;6.764;2022-10-17T00:23:16;101481.09;;;15.62
69785;BMP280;14177;51.520;6.764;2022-10-17T00:25:43;101481.19;;;15.60
69785;BMP280;14177;51.520;6.764;2022-10-17T00:28:12;101486.34;;;15.62
69785;BMP280;14177;51.520;6.764;2022-10-17T00:30:40;101479.38;;;15.61
69785;BMP280;14177;51.520;6.764;2022-10-17T00:33:07;101479.47;;;15.59
69785;BMP280;14177;51.520;6.764;2022-10-17T00:35:34;101482.22;;;15.56
69785;BMP280;14177;51.520;6.764;2022-10-17T00:38:01;101474.47;;;15.53
69785;BMP280;14177;51.520;6.764;2022-10-17T00:40:28;101463.22;;;15.51
69785;BMP280;14177;51.520;6.764;2022-10-17T00:42:55;101472.91;;;15.49
69785;BMP280;14177;51.520;6.764;2022-10-17T00:45:26;101466.91;;;15.46
69785;BMP280;14177;51.520;6.764;2022-10-17T00:48:00;101465.28;;;15.43
69785;BMP280;14177;51.520;6.764;2022-10-17T00:50:30;101472.25;;;15.43
69785;BMP280;14177;51.520;6.764;2022-10-17T00:53:01;101474.09;;;15.41
69785;BMP280;14177;51.520;6.764;2022-10-17T00:55:35;101472.50;;;15.37
69785;BMP280;14177;51.520;6.764;2022-10-17T00:58:05;101462.09;;;15.35
69785;BMP280;14177;51.520;6.764;2022-10-17T01:00:32;101468.31;;;15.33
69785;BMP280;14177;51.520;6.764;2022-10-17T01:02:59;101469.38;;;15.29
69785;BMP280;14177;51.520;6.764;2022-10-17T01:05:27;101470.19;;;15.29
69785;BMP280;14177;51.520;6.764;2022-10-17T01:07:55;101465.03;;;15.28
69785;BMP280;14177;51.520;6.764;2022-10-17T01:10:32;101469.50;;;15.24
69785;BMP280;14177;51.520;6.764;2022-10-17T01:13:43;101467.06;;;15.20
69785;BMP280;14177;51.520;6.764;2022-10-17T01:16:40;101464.56;;;15.17
69785;BMP280;14177;51.520;6.764;2022-10-17T01:22:22;101460.50;;;15.10
69785;BMP280;14177;51.520;6.764;2022-10-17T01:25:48;101458.03;;;15.05
69785;BMP280;14177;51.520;6.764;2022-10-17T01:31:32;101462.44;;;15.05
69785;BMP280;14177;51.520;6.764;2022-10-17T01:34:17;101470.28;;;15.05
69785;BMP280;14177;51.520;6.764;2022-10-17T01:36:53;101460.59;;;15.07
69785;BMP280;14177;51.520;6.764;2022-10-17T01:39:51;101451.84;;;15.08
69785;BMP280;14177;51.520;6.764;2022-10-17T01:42:30;101461.84;;;15.20
69785;BMP280;14177;51.520;6.764;2022-10-17T01:45:14;101454.19;;;15.37
69785;BMP280;14177;51.520;6.764;2022-10-17T01:47:46;101456.94;;;15.55
69785;BMP280;14177;51.520;6.764;2022-10-17T01:50:22;101453.50;;;15.75
69785;BMP280;14177;51.520;6.764;2022-10-17T01:53:10;101452.59;;;15.95
69785;BMP280;14177;51.520;6.764;2022-10-17T01:55:43;101445.75;;;16.11
69785;BMP280;14177;51.520;6.764;2022-10-17T01:58:17;101446.94;;;16.24
69785;BMP280;14177;51.520;6.764;2022-10-17T02:00:48;101437.59;;;16.39
69785;BMP280;14177;51.520;6.764;2022-10-17T02:03:19;101434.53;;;16.48
69785;BMP280;14177;51.520;6.764;2022-10-17T02:05:47;101430.69;;;16.56
69785;BMP280;14177;51.520;6.764;2022-10-17T02:08:28;101422.25;;;16.68
69785;BMP280;14177;51.520;6.764;2022-10-17T02:11:04;101416.88;;;16.71
69785;BMP280;14177;51.520;6.764;2022-10-17T02:19:54;101416.13;;;16.86
69785;BMP280;14177;51.520;6.764;2022-10-17T02:28:20;101420.81;;;16.98
69785;BMP280;14177;51.520;6.764;2022-10-17T02:31:21;101425.22;;;16.98
69785;BMP280;14177;51.520;6.764;2022-10-17T02:34:01;101433.28;;;16.93
69785;BMP280;14177;51.520;6.764;2022-10-17T02:36:35;101425.66;;;16.89
69785;BMP280;14177;51.520;6.764;2022-10-17T02:39:07;101429.06;;;16.91
69785;BMP280;14177;51.520;6.764;2022-10-17T02:41:37;101419.25;;;16.94
69785;BMP280;14177;51.520;6.764;2022-10-17T02:44:08;101433.28;;;16.93
69785;BMP280;14177;51.520;6.764;2022-10-17T02:46:39;101416.13;;;16.86
69785;BMP280;14177;51.520;6.764;2022-10-17T02:52:01;101423.44;;;16.80
69785;BMP280;14177;51.520;6.764;2022-10-17T02:54:51;101431.19;;;16.83
69785;BMP280;14177;51.520;6.764;2022-10-17T02:57:38;101423.38;;;16.81
69785;BMP280;14177;51.520;6.764;2022-10-17T03:00:12;101428.47;;;16.84
69785;BMP280;14177;51.520;6.764;2022-10-17T03:02:46;101415.94;;;16.91
69785;BMP280;14177;51.520;6.764;2022-10-17T03:05:20;101422.66;;;16.96
69785;BMP280;14177;51.520;6.764;2022-10-17T03:07:48;101421.72;;;16.97
69785;BMP280;14177;51.520;6.764;2022-10-17T03:10:16;101426.94;;;16.99
69785;BMP280;14177;51.520;6.764;2022-10-17T03:12:43;101411.19;;;16.99
69785;BMP280;14177;51.520;6.764;2022-10-17T03:15:12;101426.69;;;17.03
69785;BMP280;14177;51.520;6.764;2022-10-17T03:17:40;101423.16;;;17.04
69785;BMP280;14177;51.520;6.764;2022-10-17T03:20:08;101432.66;;;17.07
69785;BMP280;14177;51.520;6.764;2022-10-17T03:22:35;101427.09;;;17.12
69785;BMP280;14177;51.520;6.764;2022-10-17T03:25:07;101429.53;;;17.17
69785;BMP280;14177;51.520;6.764;2022-10-17T03:27:35;101426.47;;;17.26
69785;BMP280;14177;51.520;6.764;2022-10-17T03:30:03;101428.16;;;17.27
69785;BMP280;14177;51.520;6.764;2022-10-17T03:32:33;101421.06;;;17.29
69785;BMP280;14177;51.520;6.764;2022-10-17T03:35:01;101439.34;;;17.30
69785;BMP280;14177;51.520;6.764;2022-10-17T03:37:28;101436.69;;;17.32
69785;BMP280;14177;51.520;6.764;2022-10-17T03:39:57;101441.94;;;17.32
69785;BMP280;14177;51.520;6.764;2022-10-17T03:42:24;101444.19;;;17.39
69785;BMP280;14177;51.520;6.764;2022-10-17T03:44:51;101438.13;;;17.39
69785;BMP280;14177;51.520;6.764;2022-10-17T03:47:18;101443.06;;;17.45
69785;BMP280;14177;51.520;6.764;2022-10-17T03:49:45;101444.75;;;17.46
69785;BMP280;14177;51.520;6.764;2022-10-17T03:52:14;101445.75;;;17.43
69785;BMP280;14177;51.520;6.764;2022-10-17T03:54:41;101458.50;;;17.51
69785;BMP280;14177;51.520;6.764;2022-10-17T03:57:08;101445.31;;;17.52
69785;BMP280;14177;51.520;6.764;2022-10-17T03:59:35;101448.00;;;17.51
69785;BMP280;14177;51.520;6.764;2022-10-17T04:02:08;101455.28;;;17.46
69785;BMP280;14177;51.520;6.764;2022-10-17T04:04:35;101460.59;;;17.44
69785;BMP280;14177;51.520;6.764;2022-10-17T04:07:02;101461.38;;;17.46
69785;BMP280;14177;51.520;6.764;2022-10-17T04:09:29;101466.72;;;17.45
69785;BMP280;14177;51.520;6.764;2022-10-17T04:12:09;101463.75;;;17.51
69785;BMP280;14177;51.520;6.764;2022-10-17T04:14:37;101457.66;;;17.50
69785;BMP280;14177;51.520;6.764;2022-10-17T04:17:04;101455.97;;;17.49
69785;BMP280;14177;51.520;6.764;2022-10-17T04:19:32;101464.38;;;17.56
69785;BMP280;14177;51.520;6.764;2022-10-17T04:22:00;101452.94;;;17.57
69785;BMP280;14177;51.520;6.764;2022-10-17T04:24:31;101463.47;;;17.57
69785;BMP280;14177;51.520;6.764;2022-10-17T04:27:07;101457.38;;;17.56
69785;BMP280;14177;51.520;6.764;2022-10-17T04:29:39;101460.78;;;17.58
69785;BMP280;14177;51.520;6.764;2022-10-17T04:32:15;101457.13;;;17.61
69785;BMP280;14177;51.520;6.764;2022-10-17T04:34:53;101457.91;;;17.63
69785;BMP280;14177;51.520;6.764;2022-10-17T04:37:31;101450.94;;;17.62
69785;BMP280;14177;51.520;6.764;2022-10-17T04:40:02;101462.19;;;17.65
69785;BMP280;14177;51.520;6.764;2022-10-17T04:42:34;101461.94;;;17.70
69785;BMP280;14177;51.520;6.764;2022-10-17T04:45:57;101453.91;;;17.73
69785;BMP280;14177;51.520;6.764;2022-10-17T04:49:11;101455.69;;;17.72
69785;BMP280;14177;51.520;6.764;2022-10-17T04:52:06;101474.16;;;17.71
69785;BMP280;14177;51.520;6.764;2022-10-17T04:54:42;101468.97;;;17.69
69785;BMP280;14177;51.520;6.764;2022-10-17T04:57:35;101464.84;;;17.64
69785;BMP280;14177;51.520;6.764;2022-10-17T05:00:18;101467.28;;;17.68
69785;BMP280;14177;51.520;6.764;2022-10-17T05:02:58;101478.78;;;17.66
69785;BMP280;14177;51.520;6.764;2022-10-17T05:05:26;101476.16;;;17.66
69785;BMP280;14177;51.520;6.764;2022-10-17T05:07:54;101477.78;;;17.68
69785;BMP280;14177;51.520;6.764;2022-10-17T05:10:24;101478.41;;;17.73
69785;BMP280;14177;51.520;6.764;2022-10-17T05:12:52;101491.47;;;17.75
69785;BMP280;14177;51.520;6.764;2022-10-17T05:15:22;101493.25;;;17.74
69785;BMP280;14177;51.520;6.764;2022-10-17T05:17:55;101502.91;;;17.74
69785;BMP280;14177;51.520;6.764;2022-10-17T05:20:23;101502.59;;;17.80
69785;BMP280;14177;51.520;6.764;2022-10-17T05:22:50;101499.28;;;17.76
69785;BMP280;14177;51.520;6.764;2022-10-17T05:25:18;101502.75;;;17.77
69785;BMP280;14177;51.520;6.764;2022-10-17T05:27:46;101492.03;;;17.81
69785;BMP280;14177;51.520;6.764;2022-10-17T05:30:13;101499.75;;;17.84
69785;BMP280;14177;51.520;6.764;2022-10-17T05:32:40;101504.16;;;17.84
69785;BMP280;14177;51.520;6.764;2022-10-17T05:35:08;101511.13;;;17.85
69785;BMP280;14177;51.520;6.764;2022-10-17T05:37:36;101511.25;;;17.82
69785;BMP280;14177;51.520;6.764;2022-10-17T05:40:04;101522.66;;;17.82
69785;BMP280;14177;51.520;6.764;2022-10-17T05:42:32;101521.78;;;17.82
69785;BMP280;14177;51.520;6.764;2022-10-17T05:44:59;101523.47;;;17.83
69785;BMP280;14177;51.520;6.764;2022-10-17T05:47:26;101513.66;;;17.86
69785;BMP280;14177;51.520;6.764;2022-10-17T05:49:54;101519.78;;;17.87
69785;BMP280;14177;51.520;6.764;2022-10-17T05:52:26;101505.84;;;17.85
69785;BMP280;14177;51.520;6.764;2022-10-17T05:55:06;101503.38;;;17.82
69785;BMP280;14177;51.520;6.764;2022-10-17T05:57:33;101518.38;;;17.80
69785;BMP280;14177;51.520;6.764;2022-10-17T06:00:03;101518.38;;;17.80
69785;BMP280;14177;51.520;6.764;2022-10-17T06:02:40;101521.94;;;17.79
69785;BMP280;14177;51.520;6.764;2022-10-17T06:05:08;101521.94;;;17.79
69785;BMP280;14177;51.520;6.764;2022-10-17T06:07:35;101524.41;;;17.82
69785;BMP280;14177;51.520;6.764;2022-10-17T06:10:05;101522.69;;;17.81
69785;BMP280;14177;51.520;6.764;2022-10-17T06:12:32;101525.03;;;17.87
69785;BMP280;14177;51.520;6.764;2022-10-17T06:14:58;101526.66;;;17.89
69785;BMP280;14177;51.520;6.764;2022-10-17T06:17:25;101537.09;;;17.91
69785;BMP280;14177;51.520;6.764;2022-10-17T06:19:53;101526.59;;;17.91
69785;BMP280;14177;51.520;6.764;2022-10-17T06:22:22;101528.44;;;17.89
69785;BMP280;14177;51.520;6.764;2022-10-17T06:24:49;101538.66;;;17.95
69785;BMP280;14177;51.520;6.764;2022-10-17T06:27:16;101546.59;;;17.93
69785;BMP280;14177;51.520;6.764;2022-10-17T06:29:43;101550.00;;;17.95
69785;BMP280;14177;51.520;6.764;2022-10-17T06:32:09;101553.03;;;18.05
69785;BMP280;14177;51.520;6.764;2022-10-17T06:34:43;101546.78;;;18.07
69785;BMP280;14177;51.520;6.764;2022-10-17T06:37:10;101541.31;;;18.12
69785;BMP280;14177;51.520;6.764;2022-10-17T06:39:39;101535.03;;;18.14
69785;BMP280;14177;51.520;6.764;2022-10-17T06:42:18;101539.34;;;18.15
69785;BMP280;14177;51.520;6.764;2022-10-17T06:45:08;101548.72;;;18.21
69785;BMP280;14177;51.520;6.764;2022-10-17T06:47:41;101550.50;;;18.20
69785;BMP280;14177;51.520;6.764;2022-10-17T06:50:26;101559.25;;;18.21
69785;BMP280;14177;51.520;6.764;2022-10-17T06:53:11;101568.91;;;18.20
69785;BMP280;14177;51.520;6.764;2022-10-17T06:55:59;101561.69;;;18.24
69785;BMP280;14177;51.520;6.764;2022-10-17T06:58:45;101576.53;;;18.26
69785;BMP280;14177;51.520;6.764;2022-10-17T07:01:31;101581.69;;;18.28
69785;BMP280;14177;51.520;6.764;2022-10-17T07:04:02;101577.84;;;18.34
69785;BMP280;14177;51.520;6.764;2022-10-17T07:06:30;101584.78;;;18.35
69785;BMP280;14177;51.520;6.764;2022-10-17T07:09:03;101578.31;;;18.42
69785;BMP280;14177;51.520;6.764;2022-10-17T07:11:34;101581.34;;;18.52
69785;BMP280;14177;51.520;6.764;2022-10-17T07:14:02;101582.78;;;18.57
69785;BMP280;14177;51.520;6.764;2022-10-17T07:16:29;101582.47;;;18.63
69785;BMP280;14177;51.520;6.764;2022-10-17T07:19:03;101577.72;;;18.70
69785;BMP280;14177;51.520;6.764;2022-10-17T07:21:34;101582.38;;;18.82
69785;BMP280;14177;51.520;6.764;2022-10-17T07:24:06;101584.25;;;18.95
69785;BMP280;14177;51.520;6.764;2022-10-17T07:26:33;101583.78;;;19.04
69785;BMP280;14177;51.520;6.764;2022-10-17T07:29:03;101579.59;;;19.17
69785;BMP280;14177;51.520;6.764;2022-10-17T07:32:03;101595.34;;;19.34
69785;BMP280;14177;51.520;6.764;2022-10-17T07:34:35;101587.56;;;19.48
69785;BMP280;14177;51.520;6.764;2022-10-17T07:37:03;101585.78;;;19.64
69785;BMP280;14177;51.520;6.764;2022-10-17T07:39:32;101585.75;;;19.79
69785;BMP280;14177;51.520;6.764;2022-10-17T07:42:01;101589.56;;;19.89
69785;BMP280;14177;51.520;6.764;2022-10-17T07:44:28;101590.41;;;19.90
69785;BMP280;14177;51.520;6.764;2022-10-17T07:46:56;101584.53;;;19.85
69785;BMP280;14177;51.520;6.764;2022-10-17T07:49:22;101585.66;;;19.81
69785;BMP280;14177;51.520;6.764;2022-10-17T07:51:50;101592.63;;;19.82
69785;BMP280;14177;51.520;6.764;2022-10-17T07:54:17;101589.50;;;19.75
69785;BMP280;14177;51.520;6.764;2022-10-17T07:56:44;101586.88;;;19.75
69785;BMP280;14177;51.520;6.764;2022-10-17T07:59:37;101587.72;;;19.91
69785;BMP280;14177;51.520;6.764;2022-10-17T08:02:29;101593.03;;;20.21
69785;BMP280;14177;51.520;6.764;2022-10-17T08:04:56;101591.59;;;20.45
69785;BMP280;14177;51.520;6.764;2022-10-17T08:07:23;101598.53;;;20.61
69785;BMP280;14177;51.520;6.764;2022-10-17T08:09:55;101605.09;;;20.84
69785;BMP280;14177;51.520;6.764;2022-10-17T08:12:22;101619.66;;;21.04
69785;BMP280;14177;51.520;6.764;2022-10-17T08:14:50;101626.81;;;21.16
69785;BMP280;14177;51.520;6.764;2022-10-17T08:17:17;101614.72;;;21.26
69785;BMP280;14177;51.520;6.764;2022-10-17T08:19:44;101619.25;;;21.38
69785;BMP280;14177;51.520;6.764;2022-10-17T08:22:11;101627.19;;;21.52
69785;BMP280;14177;51.520;6.764;2022-10-17T08:24:38;101621.34;;;21.61
69785;BMP280;14177;51.520;6.764;2022-10-17T08:27:04;101629.25;;;21.75
69785;BMP280;14177;51.520;6.764;2022-10-17T08:29:40;101623.91;;;21.89
69785;BMP280;14177;51.520;6.764;2022-10-17T08:32:08;101627.47;;;22.02
69785;BMP280;14177;51.520;6.764;2022-10-17T08:34:36;101620.09;;;22.07
69785;BMP280;14177;51.520;6.764;2022-10-17T08:37:02;101624.97;;;22.13
69785;BMP280;14177;51.520;6.764;2022-10-17T08:39:29;101618.69;;;22.02
69785;BMP280;14177;51.520;6.764;2022-10-17T08:42:26;101635.72;;;21.98
69785;BMP280;14177;51.520;6.764;2022-10-17T08:47:58;101643.66;;;22.24
69785;BMP280;14177;51.520;6.764;2022-10-17T08:50:45;101643.31;;;22.42
69785;BMP280;14177;51.520;6.764;2022-10-17T08:53:26;101647.03;;;22.52
69785;BMP280;14177;51.520;6.764;2022-10-17T08:55:56;101650.88;;;22.61
69785;BMP280;14177;51.520;6.764;2022-10-17T08:58:32;101659.66;;;22.49
69785;BMP280;14177;51.520;6.764;2022-10-17T09:01:10;101654.47;;;22.33
69785;BMP280;14177;51.520;6.764;2022-10-17T09:06:37;101658.28;;;22.29
69785;BMP280;14177;51.520;6.764;2022-10-17T09:09:39;101665.94;;;22.34
69785;BMP280;14177;51.520;6.764;2022-10-17T09:15:54;101676.97;;;22.40
69785;BMP280;14177;51.520;6.764;2022-10-17T09:18:28;101683.88;;;22.43
69785;BMP280;14177;51.520;6.764;2022-10-17T09:21:21;101676.91;;;22.28
69785;BMP280;14177;51.520;6.764;2022-10-17T09:23:55;101678.88;;;22.24
69785;BMP280;14177;51.520;6.764;2022-10-17T09:26:40;101679.41;;;22.17
69785;BMP280;14177;51.520;6.764;2022-10-17T09:29:21;101689.53;;;22.11
69785;BMP280;14177;51.520;6.764;2022-10-17T09:32:18;101695.22;;;22.05
69785;BMP280;14177;51.520;6.764;2022-10-17T09:34:47;101705.34;;;21.98
69785;BMP280;14177;51.520;6.764;2022-10-17T09:37:16;101704.78;;;21.93
69785;BMP280;14177;51.520;6.764;2022-10-17T09:39:44;101713.31;;;21.84
69785;BMP280;14177;51.520;6.764;2022-10-17T09:42:16;101722.00;;;21.72
69785;BMP280;14177;51.520;6.764;2022-10-17T09:47:46;101728.09;;;21.59
69785;BMP280;14177;51.520;6.764;2022-10-17T09:50:32;101730.38;;;21.51
69785;BMP280;14177;51.520;6.764;2022-10-17T09:53:20;101726.31;;;21.45
69785;BMP280;14177;51.520;6.764;2022-10-17T09:55:54;101730.28;;;21.38
69785;BMP280;14177;51.520;6.764;2022-10-17T09:58:22;101743.59;;;21.37
69785;BMP280;14177;51.520;6.764;2022-10-17T10:00:49;101741.13;;;21.34
69785;BMP280;14177;51.520;6.764;2022-10-17T10:03:21;101741.56;;;21.26
69785;BMP280;14177;51.520;6.764;2022-10-17T10:06:11;101751.69;;;21.20
69785;BMP280;14177;51.520;6.764;2022-10-17T10:08:57;101761.75;;;21.13
69785;BMP280;14177;51.520;6.764;2022-10-17T10:11:50;101759.56;;;21.06
69785;BMP280;14177;51.520;6.764;2022-10-17T10:14:37;101774.94;;;20.99
69785;BMP280;14177;51.520;6.764;2022-10-17T10:17:38;101766.25;;;20.97
69785;BMP280;14177;51.520;6.764;2022-10-17T10:20:47;101765.84;;;20.89
69785;BMP280;14177;51.520;6.764;2022-10-17T10:45:57;101788.56;;;21.07
69785;BMP280;14177;51.520;6.764;2022-10-17T10:48:35;101793.91;;;21.06
69785;BMP280;14177;51.520;6.764;2022-10-17T10:51:14;101806.28;;;21.05
69785;BMP280;14177;51.520;6.764;2022-10-17T10:59:09;101832.63;;;20.91
69785;BMP280;14177;51.520;6.764;2022-10-17T11:02:13;101832.22;;;20.84
69785;BMP280;14177;51.520;6.764;2022-10-17T11:05:17;101821.03;;;20.79
69785;BMP280;14177;51.520;6.764;2022-10-17T11:07:57;101818.56;;;20.76
69785;BMP280;14177;51.520;6.764;2022-10-17T11:13:44;101805.34;;;20.76
69785;BMP280;14177;51.520;6.764;2022-10-17T11:16:31;101795.56;;;20.78
69785;BMP280;14177;51.520;6.764;2022-10-17T11:19:35;101800.25;;;20.73
69785;BMP280;14177;51.520;6.764;2022-10-17T11:22:17;101797.19;;;20.65
69785;BMP280;14177;51.520;6.764;2022-10-17T11:24:55;101790.66;;;20.56
69785;BMP280;14177;51.520;6.764;2022-10-17T11:27:28;101775.81;;;20.54
69785;BMP280;14177;51.520;6.764;2022-10-17T11:29:57;101772.41;;;20.52
69785;BMP280;14177;51.520;6.764;2022-10-17T11:32:37;101791.06;;;20.49
69785;BMP280;14177;51.520;6.764;2022-10-17T11:35:29;101798.22;;;20.47
69785;BMP280;14177;51.520;6.764;2022-10-17T11:38:32;101809.72;;;20.46
69785;BMP280;14177;51.520;6.764;2022-10-17T11:41:03;101815.75;;;20.48
69785;BMP280;14177;51.520;6.764;2022-10-17T11:43:50;101825.38;;;20.49
69785;BMP280;14177;51.520;6.764;2022-10-17T11:46:24;101829.47;;;20.54
69785;BMP280;14177;51.520;6.764;2022-10-17T11:49:09;101840.72;;;20.58
69785;BMP280;14177;51.520;6.764;2022-10-17T11:52:01;101843.94;;;20.63
69785;BMP280;14177;51.520;6.764;2022-10-17T11:54:49;101836.03;;;20.63
69785;BMP280;14177;51.520;6.764;2022-10-17T12:00:56;101832.38;;;20.65
69785;BMP280;14177;51.520;6.764;2022-10-17T12:09:39;101836.28;;;20.58
69785;BMP280;14177;51.520;6.764;2022-10-17T12:12:07;101837.13;;;20.59
69785;BMP280;14177;51.520;6.764;2022-10-17T12:14:44;101853.84;;;20.59
69785;BMP280;14177;51.520;6.764;2022-10-17T12:17:32;101864.56;;;20.56
69785;BMP280;14177;51.520;6.764;2022-10-17T12:22:55;101851.59;;;20.52
69785;BMP280;14177;51.520;6.764;2022-10-17T12:25:29;101843.84;;;20.49
69785;BMP280;14177;51.520;6.764;2022-10-17T12:31:08;101837.47;;;20.53
69785;BMP280;14177;51.520;6.764;2022-10-17T12:38:51;101854.25;;;20.52
69785;BMP280;14177;51.520;6.764;2022-10-17T12:49:44;101863.53;;;20.59
69785;BMP280;14177;51.520;6.764;2022-10-17T13:00:42;101868.81;;;20.59
69785;BMP280;14177;51.520;6.764;2022-10-17T13:03:34;101854.94;;;20.71
69785;BMP280;14177;51.520;6.764;2022-10-17T13:06:06;101869.84;;;20.72
69785;BMP280;14177;51.520;6.764;2022-10-17T13:08:38;101859.78;;;20.78
69785;BMP280;14177;51.520;6.764;2022-10-17T13:11:07;101875.47;;;20.81
69785;BMP280;14177;51.520;6.764;2022-10-17T13:13:48;101879.41;;;20.89
69785;BMP280;14177;51.520;6.764;2022-10-17T13:16:36;101882.53;;;20.96
69785;BMP280;14177;51.520;6.764;2022-10-17T13:19:16;101881.38;;;21.01
69785;BMP280;14177;51.520;6.764;2022-10-17T13:22:00;101882.31;;;21.00
69785;BMP280;14177;51.520;6.764;2022-10-17T13:24:39;101885.00;;;20.99
69785;BMP280;14177;51.520;6.764;2022-10-17T13:29:50;101900.09;;;20.97
69785;BMP280;14177;51.520;6.764;2022-10-17T13:32:17;101907.44;;;20.92
69785;BMP280;14177;51.520;6.764;2022-10-17T13:34:44;101907.34;;;20.93
69785;BMP280;14177;51.520;6.764;2022-10-17T13:37:14;101917.16;;;20.91
69785;BMP280;14177;51.520;6.764;2022-10-17T13:39:44;101916.56;;;20.87
69785;BMP280;14177;51.520;6.764;2022-10-17T13:42:27;101921.25;;;20.82
69785;BMP280;14177;51.520;6.764;2022-10-17T13:44:56;101922.94;;;20.83
69785;BMP280;14177;51.520;6.764;2022-10-17T13:47:28;101916.09;;;20.79
69785;BMP280;14177;51.520;6.764;2022-10-17T13:49:58;101916.94;;;20.79
69785;BMP280;14177;51.520;6.764;2022-10-17T13:52:28;101915.22;;;20.78
69785;BMP280;14177;51.520;6.764;2022-10-17T13:55:15;101923.16;;;20.78
69785;BMP280;14177;51.520;6.764;2022-10-17T13:57:43;101914.25;;;20.81
69785;BMP280;14177;51.520;6.764;2022-10-17T14:00:21;101927.28;;;20.84
69785;BMP280;14177;51.520;6.764;2022-10-17T14:02:49;101933.25;;;20.87
69785;BMP280;14177;51.520;6.764;2022-10-17T14:05:19;101929.50;;;20.91
69785;BMP280;14177;51.520;6.764;2022-10-17T14:08:03;101936.25;;;20.96
69785;BMP280;14177;51.520;6.764;2022-10-17T14:10:43;101926.28;;;21.01
69785;BMP280;14177;51.520;6.764;2022-10-17T14:13:24;101942.13;;;21.01
69785;BMP280;14177;51.520;6.764;2022-10-17T14:15:55;101941.41;;;20.98
69785;BMP280;14177;51.520;6.764;2022-10-17T14:18:35;101946.22;;;20.91
69785;BMP280;14177;51.520;6.764;2022-10-17T14:21:05;101937.50;;;20.89
69785;BMP280;14177;51.520;6.764;2022-10-17T14:26:56;101944.28;;;20.78
69785;BMP280;14177;51.520;6.764;2022-10-17T14:29:49;101947.13;;;20.75
69785;BMP280;14177;51.520;6.764;2022-10-17T14:32:17;101948.72;;;20.78
69785;BMP280;14177;51.520;6.764;2022-10-17T14:34:45;101961.81;;;20.79
69785;BMP280;14177;51.520;6.764;2022-10-17T14:37:46;101957.06;;;20.70
69785;BMP280;14177;51.520;6.764;2022-10-17T14:40:34;101965.22;;;20.66
69785;BMP280;14177;51.520;6.764;2022-10-17T14:43:06;101955.84;;;20.60
69785;BMP280;14177;51.520;6.764;2022-10-17T14:45:40;101982.16;;;20.62
69785;BMP280;14177;51.520;6.764;2022-10-17T14:48:15;101981.41;;;20.60
69785;BMP280;14177;51.520;6.764;2022-10-17T14:56:54;101996.94;;;20.49
69785;BMP280;14177;51.520;6.764;2022-10-17T14:59:22;102012.72;;;20.50
69785;BMP280;14177;51.520;6.764;2022-10-17T15:02:12;102011.06;;;20.48
69785;BMP280;14177;51.520;6.764;2022-10-17T15:04:39;102000.00;;;20.41
69785;BMP280;14177;51.520;6.764;2022-10-17T15:07:16;102019.50;;;20.39
69785;BMP280;14177;51.520;6.764;2022-10-17T15:09:52;102019.66;;;20.36
69785;BMP280;14177;51.520;6.764;2022-10-17T15:12:23;102024.31;;;20.31
69785;BMP280;14177;51.520;6.764;2022-10-17T15:14:52;102026.88;;;20.32
69785;BMP280;14177;51.520;6.764;2022-10-17T15:17:32;102030.53;;;20.30
69785;BMP280;14177;51.520;6.764;2022-10-17T15:20:19;102026.41;;;20.24
69785;BMP280;14177;51.520;6.764;2022-10-17T15:22:58;102028.38;;;20.21
69785;BMP280;14177;51.520;6.764;2022-10-17T15:25:36;102019.66;;;20.19
69785;BMP280;14177;51.520;6.764;2022-10-17T15:28:04;102035.72;;;20.14
69785;BMP280;14177;51.520;6.764;2022-10-17T15:30:35;102036.13;;;20.07
69785;BMP280;14177;51.520;6.764;2022-10-17T15:33:02;102028.59;;;19.99
69785;BMP280;14177;51.520;6.764;2022-10-17T15:35:30;102014.53;;;19.99
69785;BMP280;14177;51.520;6.764;2022-10-17T15:37:57;102021.81;;;19.94
69785;BMP280;14177;51.520;6.764;2022-10-17T15:40:28;102029.09;;;19.89
69785;BMP280;14177;51.520;6.764;2022-10-17T15:42:56;102042.41;;;19.86
69785;BMP280;14177;51.520;6.764;2022-10-17T15:45:23;102048.94;;;19.79
69785;BMP280;14177;51.520;6.764;2022-10-17T15:47:57;102059.63;;;19.76
69785;BMP280;14177;51.520;6.764;2022-10-17T15:50:25;102072.03;;;19.74
69785;BMP280;14177;51.520;6.764;2022-10-17T15:53:13;102081.72;;;19.73
69785;BMP280;14177;51.520;6.764;2022-10-17T15:56:18;102084.91;;;19.63
69785;BMP280;14177;51.520;6.764;2022-10-17T15:58:55;102074.78;;;19.54
69785;BMP280;14177;51.520;6.764;2022-10-17T16:01:31;102089.03;;;19.50
69785;BMP280;14177;51.520;6.764;2022-10-17T16:04:01;102086.53;;;19.47
69785;BMP280;14177;51.520;6.764;2022-10-17T16:06:39;102091.31;;;19.39
69785;BMP280;14177;51.520;6.764;2022-10-17T16:09:49;102091.59;;;19.33
69785;BMP280;14177;51.520;6.764;2022-10-17T16:12:26;102109.41;;;19.28
69785;BMP280;14177;51.520;6.764;2022-10-17T16:14:58;102105.47;;;19.18
69785;BMP280;14177;51.520;6.764;2022-10-17T16:17:33;102105.69;;;19.14
69785;BMP280;14177;51.520;6.764;2022-10-17T16:20:19;102114.63;;;19.10
69785;BMP280;14177;51.520;6.764;2022-10-17T16:22:47;102111.41;;;19.03
69785;BMP280;14177;51.520;6.764;2022-10-17T16:25:23;102111.53;;;19.00
69785;BMP280;14177;51.520;6.764;2022-10-17T16:27:53;102103.91;;;18.94
69785;BMP280;14177;51.520;6.764;2022-10-17T16:30:23;102107.50;;;18.93
69785;BMP280;14177;51.520;6.764;2022-10-17T16:32:52;102109.34;;;18.91
69785;BMP280;14177;51.520;6.764;2022-10-17T16:35:23;102102.50;;;18.87